createdAt,value
2018-08-07T00:01:19.099Z,3.63
2018-08-07T00:03:47.642Z,3.43
2018-08-07T00:06:15.535Z,3.17
2018-08-07T00:08:43.593Z,3.43
2018-08-07T00:11:11.564Z,3.43
2018-08-07T00:13:39.843Z,2.90
2018-08-07T00:16:07.779Z,2.73
2018-08-07T00:18:36.974Z,2.80
2018-08-07T00:21:05.353Z,3.07
2018-08-07T00:23:33.335Z,3.23
2018-08-07T00:26:01.235Z,3.13
2018-08-07T00:28:29.227Z,3.30
2018-08-07T00:30:57.260Z,3.03
2018-08-07T00:33:24.993Z,3.30
2018-08-07T00:35:52.835Z,3.23
2018-08-07T00:38:20.768Z,2.67
2018-08-07T00:40:49.409Z,3.10
2018-08-07T00:43:17.995Z,2.90
2018-08-07T00:45:45.891Z,3.00
2018-08-07T00:48:13.624Z,2.40
2018-08-07T00:50:41.491Z,2.70
2018-08-07T00:53:09.308Z,2.50
2018-08-07T00:55:37.115Z,2.97
2018-08-07T00:58:04.859Z,3.20
2018-08-07T01:00:32.447Z,2.80
2018-08-07T01:03:00.731Z,2.90
2018-08-07T01:05:28.575Z,3.70
2018-08-07T01:07:56.395Z,5.03
2018-08-07T01:10:24.164Z,3.50
2018-08-07T01:12:51.875Z,3.13
2018-08-07T01:15:20.622Z,2.73
2018-08-07T01:17:48.439Z,3.00
2018-08-07T01:20:17.863Z,3.07
2018-08-07T01:22:45.771Z,3.53
2018-08-07T01:25:16.486Z,3.17
2018-08-07T01:27:44.336Z,3.17
2018-08-07T01:30:13.822Z,3.13
2018-08-07T01:32:41.669Z,3.37
2018-08-07T01:35:09.538Z,3.20
2018-08-07T01:37:38.592Z,2.90
2018-08-07T01:40:07.074Z,3.70
2018-08-07T01:42:35.555Z,3.33
2018-08-07T01:45:05.032Z,3.17
2018-08-07T01:47:33.012Z,3.13
2018-08-07T01:50:00.939Z,3.07
2018-08-07T01:52:28.953Z,3.30
2018-08-07T01:54:56.925Z,2.70
2018-08-07T01:57:25.125Z,3.17
2018-08-07T01:59:52.863Z,2.97
2018-08-07T02:02:21.399Z,2.70
2018-08-07T02:04:49.138Z,3.00
2018-08-07T02:07:17.104Z,3.17
2018-08-07T02:09:45.108Z,3.40
2018-08-07T02:12:12.907Z,2.80
2018-08-07T02:14:40.773Z,2.83
2018-08-07T02:17:09.356Z,3.10
2018-08-07T02:19:37.281Z,2.70
2018-08-07T02:22:06.695Z,3.40
2018-08-07T02:24:34.387Z,2.80
2018-08-07T02:27:02.013Z,3.30
2018-08-07T02:29:29.704Z,3.37
2018-08-07T02:31:57.364Z,3.53
2018-08-07T02:34:25.658Z,3.07
2018-08-07T02:36:53.338Z,3.50
2018-08-07T02:39:20.978Z,3.90
2018-08-07T02:41:49.373Z,3.17
2018-08-07T02:44:17.351Z,3.20
2018-08-07T02:46:44.984Z,2.40
2018-08-07T02:49:12.688Z,3.60
2018-08-07T02:51:40.640Z,3.33
2018-08-07T02:54:08.311Z,3.40
2018-08-07T02:56:36.210Z,3.10
2018-08-07T02:59:03.952Z,3.13
2018-08-07T03:01:32.837Z,3.60
2018-08-07T03:04:00.775Z,3.23
2018-08-07T03:06:28.479Z,3.23
2018-08-07T03:08:56.479Z,3.00
2018-08-07T03:11:24.430Z,3.60
2018-08-07T03:13:53.779Z,3.17
2018-08-07T03:16:21.675Z,3.17
2018-08-07T03:18:49.444Z,3.70
2018-08-07T03:21:17.277Z,4.07
2018-08-07T03:23:45.089Z,3.50
2018-08-07T03:26:12.792Z,3.27
2018-08-07T03:28:40.416Z,3.60
2018-08-07T03:31:08.256Z,3.93
2018-08-07T03:33:36.162Z,3.90
2018-08-07T03:36:04.211Z,3.63
2018-08-07T03:38:32.764Z,3.30
2018-08-07T03:41:01.720Z,4.10
2018-08-07T03:43:29.535Z,3.47
2018-08-07T03:45:57.322Z,4.37
2018-08-07T03:48:25.292Z,3.47
2018-08-07T03:50:54.187Z,3.37
2018-08-07T03:53:22.004Z,4.40
2018-08-07T03:55:50.448Z,3.27
2018-08-07T03:58:19.016Z,4.10
2018-08-07T04:00:48.486Z,3.87
2018-08-07T04:03:16.748Z,3.37
2018-08-07T04:05:44.830Z,3.90
2018-08-07T04:08:12.778Z,2.90
2018-08-07T04:10:41.028Z,3.20
2018-08-07T04:13:08.896Z,3.50
2018-08-07T04:15:36.554Z,3.57
2018-08-07T04:18:04.383Z,3.70
2018-08-07T04:20:32.219Z,2.87
2018-08-07T04:22:59.911Z,6.50
2018-08-07T04:25:28.592Z,3.47
2018-08-07T04:27:56.571Z,3.27
2018-08-07T04:30:25.149Z,3.63
2018-08-07T04:32:53.670Z,2.70
2018-08-07T04:35:21.248Z,5.80
2018-08-07T04:37:49.084Z,3.80
2018-08-07T04:40:17.027Z,3.77
2018-08-07T04:42:44.739Z,2.67
2018-08-07T04:45:15.505Z,3.13
2018-08-07T04:47:44.422Z,3.43
2018-08-07T04:50:13.214Z,3.03
2018-08-07T04:52:41.163Z,3.50
2018-08-07T04:55:09.876Z,3.60
2018-08-07T04:57:38.192Z,3.23
2018-08-07T05:00:10.431Z,2.80
2018-08-07T05:02:38.987Z,2.73
2018-08-07T05:05:06.979Z,2.70
2018-08-07T05:07:34.925Z,3.27
2018-08-07T05:10:03.807Z,2.70
2018-08-07T05:12:31.649Z,2.90
2018-08-07T05:14:59.418Z,2.93
2018-08-07T05:17:27.276Z,2.97
2018-08-07T05:19:55.391Z,3.13
2018-08-07T05:22:24.008Z,2.90
2018-08-07T05:24:53.000Z,2.57
2018-08-07T05:27:20.827Z,2.73
2018-08-07T05:29:49.348Z,2.70
2018-08-07T05:32:16.976Z,2.80
2018-08-07T05:34:44.795Z,2.47
2018-08-07T05:37:13.752Z,2.70
2018-08-07T05:39:42.257Z,2.80
2018-08-07T05:42:10.144Z,3.10
2018-08-07T05:44:37.890Z,2.70
2018-08-07T05:47:05.767Z,2.80
2018-08-07T05:49:33.508Z,2.57
2018-08-07T05:52:01.208Z,3.30
2018-08-07T05:54:29.163Z,3.07
2018-08-07T05:56:57.217Z,2.80
2018-08-07T05:59:24.974Z,3.07
2018-08-07T06:01:52.816Z,2.90
2018-08-07T06:04:21.380Z,3.07
2018-08-07T06:06:49.079Z,3.23
2018-08-07T06:09:17.800Z,3.13
2018-08-07T06:11:45.603Z,2.43
2018-08-07T06:14:13.607Z,2.87
2018-08-07T06:16:41.538Z,2.80
2018-08-07T06:19:10.478Z,2.83
2018-08-07T06:21:39.384Z,2.90
2018-08-07T06:24:07.223Z,3.10
2018-08-07T06:26:35.642Z,2.67
2018-08-07T06:29:03.951Z,2.77
2018-08-07T06:31:32.503Z,2.70
2018-08-07T06:34:00.608Z,2.63
2018-08-07T06:36:28.287Z,3.20
2018-08-07T06:38:56.102Z,2.70
2018-08-07T06:41:24.674Z,2.50
2018-08-07T06:43:52.542Z,2.53
2018-08-07T06:46:21.968Z,2.80
2018-08-07T06:48:49.747Z,2.50
2018-08-07T06:51:17.376Z,2.73
2018-08-07T06:53:45.180Z,2.70
2018-08-07T06:56:12.995Z,2.80
2018-08-07T06:58:40.805Z,2.80
2018-08-07T07:01:08.764Z,2.60
2018-08-07T07:03:36.632Z,3.00
2018-08-07T07:06:05.025Z,2.77
2018-08-07T07:08:32.720Z,2.60
2018-08-07T07:11:01.268Z,2.63
2018-08-07T07:13:29.223Z,2.63
2018-08-07T07:15:57.132Z,2.77
2018-08-07T07:18:24.889Z,2.50
2018-08-07T07:20:52.795Z,2.47
2018-08-07T07:23:20.409Z,3.20
2018-08-07T07:25:48.139Z,2.90
2018-08-07T07:28:17.079Z,3.83
2018-08-07T07:30:45.080Z,4.47
2018-08-07T07:33:14.009Z,4.73
2018-08-07T07:35:41.980Z,4.37
2018-08-07T07:38:10.276Z,4.30
2018-08-07T07:40:39.232Z,4.13
2018-08-07T07:43:07.591Z,3.50
2018-08-07T07:45:36.264Z,3.77
2018-08-07T07:48:04.901Z,3.67
2018-08-07T07:50:32.913Z,2.70
2018-08-07T07:53:01.422Z,3.33
2018-08-07T07:55:28.991Z,3.83
2018-08-07T07:57:56.844Z,2.60
2018-08-07T08:00:26.690Z,3.67
2018-08-07T08:02:55.886Z,2.93
2018-08-07T08:05:25.110Z,2.57
2018-08-07T08:07:53.907Z,2.93
2018-08-07T08:10:21.879Z,2.83
2018-08-07T08:12:49.766Z,2.40
2018-08-07T08:15:17.974Z,3.17
2018-08-07T08:17:46.522Z,2.60
2018-08-07T08:20:15.389Z,2.90
2018-08-07T08:22:43.902Z,4.57
2018-08-07T08:25:12.058Z,2.47
2018-08-07T08:27:39.940Z,2.77
2018-08-07T08:30:10.562Z,2.77
2018-08-07T08:32:39.202Z,2.70
2018-08-07T08:35:08.237Z,2.63
2018-08-07T08:37:36.445Z,2.63
2018-08-07T08:40:04.834Z,2.33
2018-08-07T08:42:32.886Z,2.27
2018-08-07T08:45:01.027Z,3.00
2018-08-07T08:47:28.816Z,2.40
2018-08-07T08:49:57.161Z,2.47
2018-08-07T08:52:25.439Z,2.60
2018-08-07T08:54:54.063Z,2.83
2018-08-07T08:57:22.367Z,2.80
2018-08-07T08:59:50.239Z,2.57
2018-08-07T09:02:18.286Z,2.47
2018-08-07T09:04:46.537Z,2.70
2018-08-07T09:07:14.971Z,2.27
2018-08-07T09:09:42.824Z,2.30
2018-08-07T09:12:10.677Z,2.50
2018-08-07T09:14:38.469Z,2.37
2018-08-07T09:17:06.449Z,2.10
2018-08-07T09:19:34.394Z,3.07
2018-08-07T09:22:02.373Z,2.37
2018-08-07T09:24:30.346Z,2.20
2018-08-07T09:26:59.615Z,2.53
2018-08-07T09:29:28.526Z,3.03
2018-08-07T09:31:56.298Z,2.10
2018-08-07T09:34:24.411Z,2.10
2018-08-07T09:36:52.351Z,2.53
2018-08-07T09:39:21.509Z,2.23
2018-08-07T09:41:49.262Z,2.80
2018-08-07T09:44:17.824Z,2.60
2018-08-07T09:46:45.707Z,2.63
2018-08-07T09:49:13.466Z,2.70
2018-08-07T09:51:41.479Z,2.10
2018-08-07T09:54:09.306Z,2.50
2018-08-07T09:56:37.585Z,2.60
2018-08-07T09:59:05.328Z,2.40
2018-08-07T10:01:37.483Z,2.03
2018-08-07T10:04:05.807Z,2.30
2018-08-07T10:06:33.515Z,2.33
2018-08-07T10:09:01.426Z,2.20
2018-08-07T10:11:30.161Z,2.20
2018-08-07T10:13:58.113Z,3.10
2018-08-07T10:16:25.991Z,2.60
2018-08-07T10:18:54.093Z,2.37
2018-08-07T10:21:22.966Z,2.70
2018-08-07T10:23:51.608Z,2.87
2018-08-07T10:26:19.251Z,2.90
2018-08-07T10:28:47.844Z,2.10
2018-08-07T10:31:15.697Z,2.90
2018-08-07T10:33:43.779Z,2.40
2018-08-07T10:36:11.749Z,2.70
2018-08-07T10:38:40.977Z,2.23
2018-08-07T10:41:09.559Z,2.40
2018-08-07T10:43:37.419Z,2.10
2018-08-07T10:46:05.381Z,2.63
2018-08-07T10:48:33.194Z,2.40
2018-08-07T10:51:01.743Z,2.93
2018-08-07T10:53:29.339Z,2.67
2018-08-07T10:55:56.959Z,2.93
2018-08-07T10:58:24.622Z,2.40
2018-08-07T11:00:52.798Z,2.33
2018-08-07T11:03:20.727Z,2.40
2018-08-07T11:05:48.734Z,2.40
2018-08-07T11:08:16.676Z,2.40
2018-08-07T11:10:44.551Z,2.53
2018-08-07T11:13:12.578Z,2.90
2018-08-07T11:15:40.446Z,3.00
2018-08-07T11:18:08.223Z,2.50
2018-08-07T11:20:36.225Z,2.80
2018-08-07T11:23:04.206Z,3.27
2018-08-07T11:25:32.727Z,2.90
2018-08-07T11:28:00.766Z,2.93
2018-08-07T11:30:29.438Z,3.17
2018-08-07T11:32:58.342Z,2.60
2018-08-07T11:35:26.598Z,2.47
2018-08-07T11:37:54.692Z,2.27
2018-08-07T11:40:23.538Z,2.10
2018-08-07T11:42:52.045Z,2.30
2018-08-07T11:45:22.320Z,2.20
2018-08-07T11:47:50.400Z,1.93
2018-08-07T11:50:20.223Z,2.73
2018-08-07T11:52:48.180Z,2.07
2018-08-07T11:55:16.983Z,2.73
2018-08-07T11:57:44.977Z,2.30
2018-08-07T12:00:18.068Z,2.40
2018-08-07T12:02:46.784Z,2.37
2018-08-07T12:05:15.119Z,2.40
2018-08-07T12:07:43.062Z,2.70
2018-08-07T12:10:12.050Z,2.20
2018-08-07T12:12:41.165Z,2.30
2018-08-07T12:15:10.097Z,2.07
2018-08-07T12:17:39.027Z,2.20
2018-08-07T12:20:07.100Z,2.10
2018-08-07T12:22:34.804Z,2.30
2018-08-07T12:25:02.633Z,2.20
2018-08-07T12:27:31.282Z,2.40
2018-08-07T12:29:59.719Z,2.63
2018-08-07T12:32:27.672Z,2.30
2018-08-07T12:34:56.745Z,2.17
2018-08-07T12:37:25.175Z,2.50
2018-08-07T12:39:53.066Z,1.90
2018-08-07T12:42:21.397Z,2.47
2018-08-07T12:44:49.816Z,2.13
2018-08-07T12:47:17.730Z,2.03
2018-08-07T12:49:45.585Z,2.20
2018-08-07T12:52:13.276Z,2.30
2018-08-07T12:54:41.550Z,2.30
2018-08-07T12:57:09.503Z,2.20
2018-08-07T12:59:37.901Z,2.00
2018-08-07T13:02:05.870Z,2.27
2018-08-07T13:04:34.454Z,2.20
2018-08-07T13:07:03.050Z,2.13
2018-08-07T13:09:31.004Z,2.03
2018-08-07T13:11:58.918Z,1.87
2018-08-07T13:14:28.279Z,2.10
2018-08-07T13:16:56.085Z,1.90
2018-08-07T13:19:24.028Z,2.17
2018-08-07T13:21:52.261Z,1.93
2018-08-07T13:24:20.683Z,2.20
2018-08-07T13:26:48.687Z,2.20
2018-08-07T13:29:16.647Z,2.10
2018-08-07T13:31:45.563Z,2.17
2018-08-07T13:34:14.405Z,2.03
2018-08-07T13:36:42.124Z,2.43
2018-08-07T13:39:10.424Z,2.10
2018-08-07T13:41:38.666Z,2.47
2018-08-07T13:44:06.921Z,2.90
2018-08-07T13:46:35.249Z,2.37
2018-08-07T13:49:04.147Z,2.20
2018-08-07T13:51:33.151Z,2.10
2018-08-07T13:54:01.870Z,2.20
2018-08-07T13:56:29.535Z,2.20
2018-08-07T13:58:58.174Z,2.43
2018-08-07T14:01:26.156Z,2.30
2018-08-07T14:03:54.736Z,2.50
2018-08-07T14:06:23.627Z,2.00
2018-08-07T14:08:52.215Z,2.27
2018-08-07T14:11:20.107Z,2.40
2018-08-07T14:13:47.880Z,2.30
2018-08-07T14:16:15.787Z,2.23
2018-08-07T14:18:44.089Z,2.20
2018-08-07T14:21:12.058Z,2.67
2018-08-07T14:23:40.087Z,2.60
2018-08-07T14:26:07.944Z,2.30
2018-08-07T14:28:35.693Z,2.03
2018-08-07T14:31:04.191Z,2.43
2018-08-07T14:33:31.807Z,2.43
2018-08-07T14:36:00.335Z,2.13
2018-08-07T14:38:28.161Z,2.20
2018-08-07T14:40:56.638Z,2.40
2018-08-07T14:43:24.490Z,2.03
2018-08-07T14:45:52.473Z,2.50
2018-08-07T14:48:20.424Z,2.20
2018-08-07T14:50:48.404Z,1.73
2018-08-07T14:53:16.897Z,2.20
2018-08-07T14:55:44.667Z,2.57
2018-08-07T14:58:12.489Z,2.40
2018-08-07T15:00:40.357Z,1.73
2018-08-07T15:03:08.456Z,2.23
2018-08-07T15:05:36.278Z,2.10
2018-08-07T15:08:04.080Z,1.97
2018-08-07T15:10:31.741Z,2.07
2018-08-07T15:12:59.607Z,2.30
2018-08-07T15:15:29.228Z,2.20
2018-08-07T15:17:57.124Z,2.20
2018-08-07T15:20:26.186Z,2.43
2018-08-07T15:22:54.507Z,2.50
2018-08-07T15:25:23.554Z,3.00
2018-08-07T15:27:52.531Z,2.37
2018-08-07T15:30:20.878Z,2.07
2018-08-07T15:32:49.740Z,2.07
2018-08-07T15:35:18.775Z,2.40
2018-08-07T15:37:46.818Z,2.30
2018-08-07T15:40:14.843Z,2.27
2018-08-07T15:42:43.308Z,1.93
2018-08-07T15:45:11.451Z,2.37
2018-08-07T15:47:39.467Z,2.53
2018-08-07T15:50:09.543Z,2.50
2018-08-07T15:52:38.482Z,2.50
2018-08-07T15:55:06.969Z,2.57
2018-08-07T15:57:35.735Z,2.90
2018-08-07T16:00:03.571Z,2.57
2018-08-07T16:02:31.367Z,2.97
2018-08-07T16:04:59.962Z,3.00
2018-08-07T16:07:27.817Z,3.10
2018-08-07T16:09:55.728Z,2.83
2018-08-07T16:12:23.416Z,2.83
2018-08-07T16:14:51.234Z,2.83
2018-08-07T16:17:19.048Z,2.87
2018-08-07T16:19:46.713Z,3.03
2018-08-07T16:22:14.453Z,2.70
2018-08-07T16:24:42.349Z,2.70
2018-08-07T16:27:10.703Z,2.80
2018-08-07T16:29:38.657Z,3.27
2018-08-07T16:32:07.370Z,2.80
2018-08-07T16:34:35.910Z,3.07
2018-08-07T16:37:03.852Z,3.43
2018-08-07T16:39:33.006Z,3.07
2018-08-07T16:42:00.993Z,3.10
2018-08-07T16:44:29.822Z,2.83
2018-08-07T16:46:57.494Z,2.90
2018-08-07T16:49:25.255Z,3.60
2018-08-07T16:51:53.177Z,3.47
2018-08-07T16:54:21.631Z,3.37
2018-08-07T16:56:50.139Z,2.93
2018-08-07T16:59:18.146Z,3.40
2018-08-07T17:01:45.698Z,3.20
2018-08-07T17:04:13.343Z,3.30
2018-08-07T17:06:40.894Z,3.13
2018-08-07T17:09:09.795Z,3.17
2018-08-07T17:11:37.391Z,3.13
2018-08-07T17:14:05.245Z,3.50
2018-08-07T17:16:32.822Z,3.50
2018-08-07T17:19:00.450Z,3.40
2018-08-07T17:21:28.051Z,3.07
2018-08-07T17:23:55.616Z,4.10
2018-08-07T17:26:23.159Z,3.50
2018-08-07T17:28:50.798Z,3.17
2018-08-07T17:31:18.354Z,3.40
2018-08-07T17:33:45.897Z,3.00
2018-08-07T17:36:13.457Z,2.87
2018-08-07T17:38:41.037Z,3.30
2018-08-07T17:41:08.688Z,3.00
2018-08-07T17:43:36.259Z,2.90
2018-08-07T17:46:03.807Z,3.10
2018-08-07T17:48:31.339Z,2.90
2018-08-07T17:50:58.900Z,2.87
2018-08-07T17:53:26.457Z,2.43
2018-08-07T17:55:54.033Z,3.23
2018-08-07T17:58:21.598Z,2.43
2018-08-07T18:00:49.186Z,2.60
2018-08-07T18:03:16.711Z,2.60
2018-08-07T18:05:44.318Z,2.60
2018-08-07T18:08:11.877Z,2.60
2018-08-07T18:10:39.479Z,2.87
2018-08-07T18:13:07.177Z,3.20
2018-08-07T18:15:35.555Z,2.60
2018-08-07T18:18:03.219Z,2.80
2018-08-07T18:20:30.776Z,2.83
2018-08-07T18:22:58.341Z,3.57
2018-08-07T18:25:25.904Z,4.47
2018-08-07T18:27:53.536Z,2.80
2018-08-07T18:30:22.568Z,2.27
2018-08-07T18:32:50.122Z,2.57
2018-08-07T18:35:19.238Z,2.33
2018-08-07T18:37:46.903Z,3.30
2018-08-07T18:40:15.325Z,2.60
2018-08-07T18:42:42.930Z,2.70
2018-08-07T18:45:11.634Z,3.17
2018-08-07T18:48:59.782Z,2.50
2018-08-07T18:51:27.341Z,3.17
2018-08-07T18:53:54.910Z,3.33
2018-08-07T18:56:22.468Z,3.20
2018-08-07T18:58:50.127Z,2.60
2018-08-07T19:01:17.682Z,2.73
2018-08-07T19:03:45.242Z,3.30
2018-08-07T19:06:12.780Z,3.40
2018-08-07T19:08:40.357Z,3.17
2018-08-07T19:11:08.094Z,2.90
2018-08-07T19:13:35.693Z,3.57
2018-08-07T19:16:03.325Z,3.40
2018-08-07T19:18:30.970Z,2.60
2018-08-07T19:20:58.431Z,2.80
2018-08-07T19:23:26.111Z,2.60
2018-08-07T19:25:53.645Z,2.67
2018-08-07T19:28:21.175Z,2.63
2018-08-07T19:30:48.767Z,2.50
2018-08-07T19:33:16.303Z,2.63
2018-08-07T19:35:43.879Z,2.90
2018-08-07T19:38:11.511Z,3.00
2018-08-07T19:40:39.108Z,3.27
2018-08-07T19:43:06.683Z,2.90
2018-08-07T19:45:34.285Z,3.10
2018-08-07T19:48:01.848Z,3.00
2018-08-07T19:50:29.443Z,2.80
2018-08-07T19:52:57.031Z,2.90
2018-08-07T19:55:24.667Z,3.53
2018-08-07T19:57:52.245Z,3.70
2018-08-07T20:00:21.605Z,3.30
2018-08-07T20:02:49.579Z,3.47
2018-08-07T20:05:17.126Z,3.20
2018-08-07T20:07:44.789Z,3.17
2018-08-07T20:10:12.883Z,2.90
2018-08-07T20:12:40.838Z,3.37
2018-08-07T20:15:10.343Z,3.13
2018-08-07T20:17:38.043Z,3.40
2018-08-07T20:20:05.974Z,3.20
2018-08-07T20:22:33.630Z,3.07
2018-08-07T20:25:01.239Z,3.13
2018-08-07T20:27:28.855Z,3.20
2018-08-07T20:29:56.416Z,3.13
2018-08-07T20:32:24.098Z,3.17
2018-08-07T20:34:51.650Z,4.00
2018-08-07T20:37:19.237Z,3.50
2018-08-07T20:39:46.812Z,3.60
2018-08-07T20:42:14.389Z,3.70
2018-08-07T20:44:42.142Z,3.70
2018-08-07T20:47:09.752Z,3.60
2018-08-07T20:49:37.398Z,3.87
2018-08-07T20:52:05.031Z,3.80
2018-08-07T20:54:32.645Z,4.20
2018-08-07T20:57:00.248Z,3.87
2018-08-07T20:59:27.862Z,3.90
2018-08-07T21:01:55.460Z,3.30
2018-08-07T21:04:23.084Z,3.83
2018-08-07T21:06:50.642Z,3.20
2018-08-07T21:09:18.207Z,3.70
2018-08-07T21:11:45.962Z,3.40
2018-08-07T21:14:13.506Z,3.30
2018-08-07T21:16:41.156Z,3.60
2018-08-07T21:19:08.760Z,3.53
2018-08-07T21:21:36.415Z,3.37
2018-08-07T21:24:04.016Z,3.17
2018-08-07T21:26:31.556Z,3.37
2018-08-07T21:28:59.078Z,3.90
2018-08-07T21:31:26.638Z,3.23
2018-08-07T21:33:54.197Z,4.20
2018-08-07T21:36:21.835Z,3.70
2018-08-07T21:38:49.426Z,3.93
2018-08-07T21:41:17.114Z,3.80
2018-08-07T21:43:44.670Z,3.90
2018-08-07T21:46:12.284Z,4.03
2018-08-07T21:48:39.903Z,3.87
2018-08-07T21:51:07.542Z,4.20
2018-08-07T21:53:35.099Z,4.30
2018-08-07T21:56:02.706Z,3.53
2018-08-07T21:58:30.239Z,4.03
2018-08-07T22:00:57.797Z,3.97
2018-08-07T22:03:25.339Z,4.20
2018-08-07T22:05:52.977Z,3.97
2018-08-07T22:08:20.572Z,4.43
2018-08-07T22:10:48.201Z,3.80
2018-08-07T22:13:15.825Z,3.50
2018-08-07T22:15:43.405Z,3.10
2018-08-07T22:18:11.576Z,3.40
2018-08-07T22:20:39.222Z,3.90
2018-08-07T22:23:06.746Z,4.80
2018-08-07T22:25:34.417Z,3.33
2018-08-07T22:28:02.051Z,3.17
2018-08-07T22:30:29.581Z,4.57
2018-08-07T22:32:57.161Z,3.80
2018-08-07T22:35:24.700Z,4.47
2018-08-07T22:37:52.262Z,4.40
2018-08-07T22:40:19.802Z,3.73
2018-08-07T22:42:47.395Z,4.27
2018-08-07T22:45:16.327Z,4.37
2018-08-07T22:47:43.984Z,3.70
2018-08-07T22:50:12.839Z,4.10
2018-08-07T22:52:40.535Z,4.20
2018-08-07T22:55:09.309Z,4.20
2018-08-07T22:57:36.928Z,4.47
2018-08-07T23:00:06.442Z,4.63
2018-08-07T23:02:33.993Z,4.00
2018-08-07T23:05:01.694Z,3.40
2018-08-07T23:07:29.339Z,4.10
2018-08-07T23:09:57.186Z,3.93
2018-08-07T23:12:24.745Z,4.30
2018-08-07T23:14:52.339Z,4.57
2018-08-07T23:17:19.918Z,4.30
2018-08-07T23:19:47.476Z,4.37
2018-08-07T23:22:15.001Z,4.50
2018-08-07T23:24:42.865Z,4.40
2018-08-07T23:27:10.396Z,4.10
2018-08-07T23:29:37.958Z,5.30
2018-08-07T23:32:05.525Z,5.43
2018-08-07T23:34:33.112Z,4.70
2018-08-07T23:37:00.682Z,4.17
2018-08-07T23:39:28.270Z,4.60
2018-08-07T23:41:55.892Z,4.07
2018-08-07T23:44:23.426Z,4.90
2018-08-07T23:46:50.968Z,4.40
2018-08-07T23:49:18.530Z,5.20
2018-08-07T23:51:46.080Z,4.80
2018-08-07T23:54:13.618Z,4.67
2018-08-07T23:56:41.167Z,4.93
2018-08-07T23:59:08.717Z,4.27
